Longvann — PBYB — position and weather

sailwx.info

Track history (hours):
 
Tides and Currents Weather Stations Pressure Air Temp Water Temp Dewpoint Dewpoint Depression Visibility Wind Speed Wind Dir Waves Ship Positions

Longvann

Last reported at 2017-Mar-23 16:24 UTC. Time now 2017-Mar-24 02:02 UTC.
Position N 53°26' E 004°53'.

Length 114 m; draft 3.9 m.

Type: Cargo ship. MMSI: 246670000.

Date/timePositionNaut miles runAvg speedWind from/ knotsBaromVisibWave heightAir tempDewpointWater temp
2017-Mar-23 16:24N 53°26' E 004°53'16 7.9
2017-Mar-23 14:23N 53°14' E 004°35'11 8.8
2017-Mar-23 13:07N 53°05' E 004°25'5 9.4
2017-Mar-23 12:33N 53°00' E 004°21'9 9.2
2017-Mar-23 11:33N 52°52' E 004°14'9 8.8
2017-Mar-23 10:33N 52°44' E 004°07'22 7.3
2017-Mar-23 07:32N 52°28' E 003°42'10 8.9
2017-Mar-23 06:27N 52°21' E 003°31'59 9.3
2017-Mar-23 00:06N 51°37' E 002°27'710.4
2017-Mar-22 23:28N 51°32' E 002°20'1010.6
2017-Mar-22 22:33N 51°24' E 002°13'1010.2
2017-Mar-22 21:33N 51°15' E 002°04'1211.6
2017-Mar-22 20:33N 51°08' E 001°50'5 5.3
2017-Mar-22 19:33N 51°03' E 001°54'1111.0
2017-Mar-22 18:31N 51°03' E 002°12'5 5.6
2017-Mar-22 17:33N 51°03' E 002°20'1 0.6
2017-Mar-22 16:33N 51°03' E 002°21'0 0.0
2017-Mar-22 15:33N 51°03' E 002°21'0 0.0
2017-Mar-22 14:33N 51°03' E 002°21'0 0.0
2017-Mar-22 13:33N 51°03' E 002°21'0 0.0
2017-Mar-22 12:33N 51°03' E 002°21'0 0.0
2017-Mar-22 11:32N 51°03' E 002°21'0 0.0
2017-Mar-22 10:33N 51°03' E 002°21'0 0.0
2017-Mar-22 09:33N 51°03' E 002°21'0 0.0
2017-Mar-22 08:33N 51°03' E 002°21'0 0.0
2017-Mar-22 07:31N 51°03' E 002°21'0 0.0
2017-Mar-22 06:33N 51°03' E 002°21'0 0.0
2017-Mar-22 05:33N 51°03' E 002°21'0 0.0
2017-Mar-22 04:33N 51°03' E 002°21'0 0.0
2017-Mar-22 03:33N 51°03' E 002°21'0 0.0
2017-Mar-22 02:33N 51°03' E 002°21'0 0.0
2017-Mar-22 01:33N 51°03' E 002°21'0 0.0
2017-Mar-22 00:33N 51°03' E 002°21'0 0.0
2017-Mar-21 23:33N 51°03' E 002°21'0 0.0
2017-Mar-21 22:33N 51°03' E 002°21'0 0.0
2017-Mar-21 21:33N 51°03' E 002°21'0 0.0
2017-Mar-21 20:33N 51°03' E 002°21'0 0.0
2017-Mar-21 19:32N 51°03' E 002°21'0 0.0
2017-Mar-21 18:33N 51°03' E 002°21'0 0.1
2017-Mar-21 17:33N 51°03' E 002°21'0 0.1
2017-Mar-21 16:33N 51°03' E 002°21'0 0.0
2017-Mar-21 15:31N 51°03' E 002°21'0 0.0
2017-Mar-21 14:33N 51°03' E 002°21'0 0.0
2017-Mar-21 13:31N 51°03' E 002°21'0 0.0
2017-Mar-21 12:32N 51°03' E 002°21'0 0.0
2017-Mar-21 11:32N 51°03' E 002°21'0 0.0
2017-Mar-21 10:33N 51°03' E 002°21'0 0.0
2017-Mar-21 09:33N 51°03' E 002°21'0 0.0
2017-Mar-21 08:32N 51°03' E 002°21'0 0.0
2017-Mar-21 07:32N 51°03' E 002°21'0 0.0
2017-Mar-21 06:33N 51°03' E 002°21'0 0.0
2017-Mar-21 05:33N 51°03' E 002°21'0 0.0
2017-Mar-21 04:33N 51°03' E 002°21'0 0.0
2017-Mar-21 03:33N 51°03' E 002°21'0 0.0
2017-Mar-21 02:33N 51°03' E 002°21'0 0.0
2017-Mar-21 01:33N 51°03' E 002°21'0 0.0
2017-Mar-21 00:33N 51°03' E 002°21'0 0.0
2017-Mar-20 23:33N 51°03' E 002°21'0 0.0
2017-Mar-20 22:33N 51°03' E 002°21'0 0.0
2017-Mar-20 21:32N 51°03' E 002°21'0 0.0
2017-Mar-20 20:33N 51°03' E 002°21'0 0.0
2017-Mar-20 19:33N 51°03' E 002°21'0 0.0
2017-Mar-20 18:26N 51°03' E 002°21'0 0.0
2017-Mar-20 17:32N 51°03' E 002°21'0 0.0
2017-Mar-20 16:32N 51°03' E 002°21'0 0.0
2017-Mar-20 15:27N 51°03' E 002°21'0 0.0
2017-Mar-20 14:33N 51°03' E 002°21'1 0.8
2017-Mar-20 13:33N 51°03' E 002°22'5 4.6
2017-Mar-20 12:33N 51°04' E 002°15'10 9.7
2017-Mar-20 11:33N 51°02' E 001°59'7 6.5
2017-Mar-20 10:33N 51°02' E 001°49'6 6.1
2017-Mar-20 09:33N 51°06' E 001°42'9 8.7
2017-Mar-20 08:33N 51°14' E 001°47'9 9.0
2017-Mar-20 07:33N 51°22' E 001°54'9 8.7
2017-Mar-20 06:33N 51°29' E 002°02'9 8.9
2017-Mar-20 05:33N 51°36' E 002°11'10 9.4
2017-Mar-20 04:31N 51°44' E 002°21'8910.6
2017-Mar-19 20:07N 52°54' E 003°51'7 9.3
2017-Mar-19 19:21N 52°59' E 003°60'354 9.9
2017-Mar-18 07:33N 57°44' E 010°11'1010.4
2017-Mar-18 06:33N 57°46' E 010°30'10 9.4
2017-Mar-18 05:32N 57°47' E 010°48'1111.0
2017-Mar-18 04:33N 57°40' E 011°03'1111.3
2017-Mar-18 03:33N 57°33' E 011°19'1111.0
2017-Mar-18 02:33N 57°23' E 011°30'1211.6
2017-Mar-18 01:33N 57°12' E 011°37'1211.7
2017-Mar-18 00:33N 57°01' E 011°44'5210.4
2017-Mar-17 19:33N 56°13' E 012°19'1010.4
2017-Mar-17 18:33N 56°07' E 012°34'9 9.2
2017-Mar-17 17:33N 55°59' E 012°42'10 9.6
2017-Mar-17 16:33N 55°49' E 012°44'1010.3
2017-Mar-17 15:33N 55°39' E 012°42'9 9.3
2017-Mar-17 14:33N 55°30' E 012°43'1110.8
2017-Mar-17 13:33N 55°19' E 012°40'1010.5
2017-Mar-17 12:33N 55°14' E 012°57'1310.9
2017-Mar-17 11:22N 55°06' E 013°14'911.2
2017-Mar-17 10:32N 55°00' E 013°27'1411.0
2017-Mar-17 09:18N 54°51' E 013°45'1110.6
2017-Mar-17 08:14N 54°44' E 013°59'710.3
2017-Mar-17 07:32N 54°41' E 014°11'2610.5
2017-Mar-17 05:03N 54°41' E 014°55'510.9
2017-Mar-17 04:33N 54°42' E 015°05'1111.0
2017-Mar-17 03:33N 54°43' E 015°23'4611.0
2017-Mar-16 23:22N 54°50' E 016°42'4511.1
2017-Mar-16 19:19N 54°57' E 017°60'911.3
2017-Mar-16 18:33N 54°57' E 018°14'1111.0
2017-Mar-16 17:33N 54°57' E 018°34'1111.1
2017-Mar-16 16:33N 54°49' E 018°46'1111.3
2017-Mar-16 15:34N 54°40' E 018°58'1110.9
2017-Mar-16 14:33N 54°31' E 018°47'7 7.4
2017-Mar-16 13:33N 54°25' E 018°39'3 2.5
2017-Mar-16 12:33N 54°22' E 018°40'0 0.0
2017-Mar-16 11:33N 54°22' E 018°40'0 0.0
2017-Mar-16 10:33N 54°22' E 018°40'0 0.0
2017-Mar-16 09:33N 54°22' E 018°40'0 0.0
2017-Mar-16 08:33N 54°22' E 018°40'0 0.0
2017-Mar-16 07:33N 54°22' E 018°40'0 0.0
2017-Mar-16 06:33N 54°22' E 018°40'0 0.0
2017-Mar-16 05:33N 54°22' E 018°40'0 0.0
2017-Mar-16 04:33N 54°22' E 018°40'0 0.0
2017-Mar-16 03:33N 54°22' E 018°40'0 0.0
2017-Mar-16 02:33N 54°22' E 018°40'0 0.0
2017-Mar-16 01:33N 54°22' E 018°40'0 0.0
2017-Mar-16 00:33N 54°22' E 018°40'0 0.0
2017-Mar-15 23:33N 54°22' E 018°40'0 0.0
2017-Mar-15 22:33N 54°22' E 018°40'0 0.0
2017-Mar-15 21:33N 54°22' E 018°40'0 0.0
2017-Mar-15 20:33N 54°22' E 018°40'0 0.0
2017-Mar-15 19:33N 54°22' E 018°40'0 0.0
2017-Mar-15 18:33N 54°22' E 018°40'0 0.0
2017-Mar-15 17:33N 54°22' E 018°40'0 0.0
2017-Mar-15 16:33N 54°22' E 018°40'0 0.0
2017-Mar-15 15:33N 54°22' E 018°40'0 0.0
2017-Mar-15 14:33N 54°22' E 018°40'0 0.0
2017-Mar-15 13:33N 54°22' E 018°40'0 0.0
2017-Mar-15 12:33N 54°22' E 018°40'0 0.0
2017-Mar-15 11:30N 54°22' E 018°40'0 0.0
2017-Mar-15 10:33N 54°22' E 018°40'0 0.0
2017-Mar-15 09:33N 54°22' E 018°40'0 0.0
2017-Mar-15 08:33N 54°22' E 018°40'0 0.0
2017-Mar-15 07:33N 54°22' E 018°40'0 0.4
2017-Mar-15 06:34N 54°22' E 018°40'2 2.2
2017-Mar-15 05:33N 54°24' E 018°40'0 0.0
2017-Mar-15 04:33N 54°24' E 018°40'0 0.0
2017-Mar-15 03:33N 54°24' E 018°40'0 0.0
2017-Mar-15 02:33N 54°24' E 018°40'0 0.0
2017-Mar-15 01:33N 54°24' E 018°40'0 0.0
2017-Mar-15 00:33N 54°24' E 018°40'0 0.0
2017-Mar-14 23:33N 54°24' E 018°40'0 0.0
2017-Mar-14 22:33N 54°24' E 018°40'0 0.0
2017-Mar-14 21:33N 54°24' E 018°40'0 0.0
2017-Mar-14 20:33N 54°24' E 018°40'0 0.0
2017-Mar-14 19:33N 54°24' E 018°40'0 0.0
2017-Mar-14 18:33N 54°24' E 018°40'0 0.0
2017-Mar-14 17:33N 54°24' E 018°40'0 0.0
2017-Mar-14 16:33N 54°24' E 018°40'0 0.0
2017-Mar-14 15:33N 54°24' E 018°40'0 0.0
2017-Mar-14 14:33N 54°24' E 018°40'0 0.0
2017-Mar-14 13:33N 54°24' E 018°40'0 0.0
2017-Mar-14 12:33N 54°24' E 018°40'0 0.1
2017-Mar-14 11:33N 54°24' E 018°40'0 0.0
2017-Mar-14 10:33N 54°24' E 018°40'0 0.0
2017-Mar-14 09:33N 54°24' E 018°40'0 0.0
2017-Mar-14 08:33N 54°24' E 018°40'0 0.0
2017-Mar-14 07:33N 54°24' E 018°40'0 0.0
2017-Mar-14 06:33N 54°24' E 018°40'0 0.0
2017-Mar-14 05:33N 54°24' E 018°40'0 0.0
2017-Mar-14 04:33N 54°24' E 018°40'0 0.0
2017-Mar-14 03:33N 54°24' E 018°40'0 0.0
2017-Mar-14 02:33N 54°24' E 018°40'0 0.0
2017-Mar-14 01:33N 54°24' E 018°40'0 0.0
2017-Mar-14 00:33N 54°24' E 018°40'0 0.0
2017-Mar-13 23:33N 54°24' E 018°40'0 0.0
2017-Mar-13 22:33N 54°24' E 018°40'0 0.0
2017-Mar-13 21:33N 54°24' E 018°40'0 0.0
2017-Mar-13 20:33N 54°24' E 018°40'0 0.0
2017-Mar-13 19:33N 54°24' E 018°40'0 0.0
2017-Mar-13 18:33N 54°24' E 018°40'0 0.0
2017-Mar-13 17:33N 54°24' E 018°40'0 0.0
2017-Mar-13 16:33N 54°24' E 018°40'  
Track history (hours):
 
Tides and Currents Weather Stations Pressure Air Temp Water Temp Dewpoint Dewpoint Depression Visibility Wind Speed Wind Dir Waves Ship Positions

Longvann

Last reported at 2017-Mar-23 16:24 UTC. Time now 2017-Mar-24 02:02 UTC.
Position N 53°26' E 004°53'.

Length 114 m; draft 3.9 m.

Type: Cargo ship. MMSI: 246670000.

Date/timePositionNaut miles runAvg speedWind from/ knotsBaromVisibWave heightAir tempDewpointWater temp
2017-Mar-23 16:24N 53°26' E 004°53'16 7.9
2017-Mar-23 14:23N 53°14' E 004°35'11 8.8
2017-Mar-23 13:07N 53°05' E 004°25'5 9.4
2017-Mar-23 12:33N 53°00' E 004°21'9 9.2
2017-Mar-23 11:33N 52°52' E 004°14'9 8.8
2017-Mar-23 10:33N 52°44' E 004°07'22 7.3
2017-Mar-23 07:32N 52°28' E 003°42'10 8.9
2017-Mar-23 06:27N 52°21' E 003°31'59 9.3
2017-Mar-23 00:06N 51°37' E 002°27'710.4
2017-Mar-22 23:28N 51°32' E 002°20'1010.6
2017-Mar-22 22:33N 51°24' E 002°13'1010.2
2017-Mar-22 21:33N 51°15' E 002°04'1211.6
2017-Mar-22 20:33N 51°08' E 001°50'5 5.3
2017-Mar-22 19:33N 51°03' E 001°54'1111.0
2017-Mar-22 18:31N 51°03' E 002°12'5 5.6
2017-Mar-22 17:33N 51°03' E 002°20'1 0.6
2017-Mar-22 16:33N 51°03' E 002°21'0 0.0
2017-Mar-22 15:33N 51°03' E 002°21'0 0.0
2017-Mar-22 14:33N 51°03' E 002°21'0 0.0
2017-Mar-22 13:33N 51°03' E 002°21'0 0.0
2017-Mar-22 12:33N 51°03' E 002°21'0 0.0
2017-Mar-22 11:32N 51°03' E 002°21'0 0.0
2017-Mar-22 10:33N 51°03' E 002°21'0 0.0
2017-Mar-22 09:33N 51°03' E 002°21'0 0.0
2017-Mar-22 08:33N 51°03' E 002°21'0 0.0
2017-Mar-22 07:31N 51°03' E 002°21'0 0.0
2017-Mar-22 06:33N 51°03' E 002°21'0 0.0
2017-Mar-22 05:33N 51°03' E 002°21'0 0.0
2017-Mar-22 04:33N 51°03' E 002°21'0 0.0
2017-Mar-22 03:33N 51°03' E 002°21'0 0.0
2017-Mar-22 02:33N 51°03' E 002°21'0 0.0
2017-Mar-22 01:33N 51°03' E 002°21'0 0.0
2017-Mar-22 00:33N 51°03' E 002°21'0 0.0
2017-Mar-21 23:33N 51°03' E 002°21'0 0.0
2017-Mar-21 22:33N 51°03' E 002°21'0 0.0
2017-Mar-21 21:33N 51°03' E 002°21'0 0.0
2017-Mar-21 20:33N 51°03' E 002°21'0 0.0
2017-Mar-21 19:32N 51°03' E 002°21'0 0.0
2017-Mar-21 18:33N 51°03' E 002°21'0 0.1
2017-Mar-21 17:33N 51°03' E 002°21'0 0.1
2017-Mar-21 16:33N 51°03' E 002°21'0 0.0
2017-Mar-21 15:31N 51°03' E 002°21'0 0.0
2017-Mar-21 14:33N 51°03' E 002°21'0 0.0
2017-Mar-21 13:31N 51°03' E 002°21'0 0.0
2017-Mar-21 12:32N 51°03' E 002°21'0 0.0
2017-Mar-21 11:32N 51°03' E 002°21'0 0.0
2017-Mar-21 10:33N 51°03' E 002°21'0 0.0
2017-Mar-21 09:33N 51°03' E 002°21'0 0.0
2017-Mar-21 08:32N 51°03' E 002°21'0 0.0
2017-Mar-21 07:32N 51°03' E 002°21'0 0.0
2017-Mar-21 06:33N 51°03' E 002°21'0 0.0
2017-Mar-21 05:33N 51°03' E 002°21'0 0.0
2017-Mar-21 04:33N 51°03' E 002°21'0 0.0
2017-Mar-21 03:33N 51°03' E 002°21'0 0.0
2017-Mar-21 02:33N 51°03' E 002°21'0 0.0
2017-Mar-21 01:33N 51°03' E 002°21'0 0.0
2017-Mar-21 00:33N 51°03' E 002°21'0 0.0
2017-Mar-20 23:33N 51°03' E 002°21'0 0.0
2017-Mar-20 22:33N 51°03' E 002°21'0 0.0
2017-Mar-20 21:32N 51°03' E 002°21'0 0.0
2017-Mar-20 20:33N 51°03' E 002°21'0 0.0
2017-Mar-20 19:33N 51°03' E 002°21'0 0.0
2017-Mar-20 18:26N 51°03' E 002°21'0 0.0
2017-Mar-20 17:32N 51°03' E 002°21'0 0.0
2017-Mar-20 16:32N 51°03' E 002°21'0 0.0
2017-Mar-20 15:27N 51°03' E 002°21'0 0.0
2017-Mar-20 14:33N 51°03' E 002°21'1 0.8
2017-Mar-20 13:33N 51°03' E 002°22'5 4.6
2017-Mar-20 12:33N 51°04' E 002°15'10 9.7
2017-Mar-20 11:33N 51°02' E 001°59'7 6.5
2017-Mar-20 10:33N 51°02' E 001°49'6 6.1
2017-Mar-20 09:33N 51°06' E 001°42'9 8.7
2017-Mar-20 08:33N 51°14' E 001°47'9 9.0
2017-Mar-20 07:33N 51°22' E 001°54'9 8.7
2017-Mar-20 06:33N 51°29' E 002°02'9 8.9
2017-Mar-20 05:33N 51°36' E 002°11'10 9.4
2017-Mar-20 04:31N 51°44' E 002°21'8910.6
2017-Mar-19 20:07N 52°54' E 003°51'7 9.3
2017-Mar-19 19:21N 52°59' E 003°60'354 9.9
2017-Mar-18 07:33N 57°44' E 010°11'1010.4
2017-Mar-18 06:33N 57°46' E 010°30'10 9.4
2017-Mar-18 05:32N 57°47' E 010°48'1111.0
2017-Mar-18 04:33N 57°40' E 011°03'1111.3
2017-Mar-18 03:33N 57°33' E 011°19'1111.0
2017-Mar-18 02:33N 57°23' E 011°30'1211.6
2017-Mar-18 01:33N 57°12' E 011°37'1211.7
2017-Mar-18 00:33N 57°01' E 011°44'5210.4
2017-Mar-17 19:33N 56°13' E 012°19'1010.4
2017-Mar-17 18:33N 56°07' E 012°34'9 9.2
2017-Mar-17 17:33N 55°59' E 012°42'10 9.6
2017-Mar-17 16:33N 55°49' E 012°44'1010.3
2017-Mar-17 15:33N 55°39' E 012°42'9 9.3
2017-Mar-17 14:33N 55°30' E 012°43'1110.8
2017-Mar-17 13:33N 55°19' E 012°40'1010.5
2017-Mar-17 12:33N 55°14' E 012°57'1310.9
2017-Mar-17 11:22N 55°06' E 013°14'911.2
2017-Mar-17 10:32N 55°00' E 013°27'1411.0
2017-Mar-17 09:18N 54°51' E 013°45'1110.6
2017-Mar-17 08:14N 54°44' E 013°59'710.3
2017-Mar-17 07:32N 54°41' E 014°11'2610.5
2017-Mar-17 05:03N 54°41' E 014°55'510.9
2017-Mar-17 04:33N 54°42' E 015°05'1111.0
2017-Mar-17 03:33N 54°43' E 015°23'4611.0
2017-Mar-16 23:22N 54°50' E 016°42'4511.1
2017-Mar-16 19:19N 54°57' E 017°60'911.3
2017-Mar-16 18:33N 54°57' E 018°14'1111.0
2017-Mar-16 17:33N 54°57' E 018°34'1111.1
2017-Mar-16 16:33N 54°49' E 018°46'1111.3
2017-Mar-16 15:34N 54°40' E 018°58'1110.9
2017-Mar-16 14:33N 54°31' E 018°47'7 7.4
2017-Mar-16 13:33N 54°25' E 018°39'3 2.5
2017-Mar-16 12:33N 54°22' E 018°40'0 0.0
2017-Mar-16 11:33N 54°22' E 018°40'0 0.0
2017-Mar-16 10:33N 54°22' E 018°40'0 0.0
2017-Mar-16 09:33N 54°22' E 018°40'0 0.0
2017-Mar-16 08:33N 54°22' E 018°40'0 0.0
2017-Mar-16 07:33N 54°22' E 018°40'0 0.0
2017-Mar-16 06:33N 54°22' E 018°40'0 0.0
2017-Mar-16 05:33N 54°22' E 018°40'0 0.0
2017-Mar-16 04:33N 54°22' E 018°40'0 0.0
2017-Mar-16 03:33N 54°22' E 018°40'0 0.0
2017-Mar-16 02:33N 54°22' E 018°40'0 0.0
2017-Mar-16 01:33N 54°22' E 018°40'0 0.0
2017-Mar-16 00:33N 54°22' E 018°40'0 0.0
2017-Mar-15 23:33N 54°22' E 018°40'0 0.0
2017-Mar-15 22:33N 54°22' E 018°40'0 0.0
2017-Mar-15 21:33N 54°22' E 018°40'0 0.0
2017-Mar-15 20:33N 54°22' E 018°40'0 0.0
2017-Mar-15 19:33N 54°22' E 018°40'0 0.0
2017-Mar-15 18:33N 54°22' E 018°40'0 0.0
2017-Mar-15 17:33N 54°22' E 018°40'0 0.0
2017-Mar-15 16:33N 54°22' E 018°40'0 0.0
2017-Mar-15 15:33N 54°22' E 018°40'0 0.0
2017-Mar-15 14:33N 54°22' E 018°40'0 0.0
2017-Mar-15 13:33N 54°22' E 018°40'0 0.0
2017-Mar-15 12:33N 54°22' E 018°40'0 0.0
2017-Mar-15 11:30N 54°22' E 018°40'0 0.0
2017-Mar-15 10:33N 54°22' E 018°40'0 0.0
2017-Mar-15 09:33N 54°22' E 018°40'0 0.0
2017-Mar-15 08:33N 54°22' E 018°40'0 0.0
2017-Mar-15 07:33N 54°22' E 018°40'0 0.4
2017-Mar-15 06:34N 54°22' E 018°40'2 2.2
2017-Mar-15 05:33N 54°24' E 018°40'0 0.0
2017-Mar-15 04:33N 54°24' E 018°40'0 0.0
2017-Mar-15 03:33N 54°24' E 018°40'0 0.0
2017-Mar-15 02:33N 54°24' E 018°40'0 0.0
2017-Mar-15 01:33N 54°24' E 018°40'0 0.0
2017-Mar-15 00:33N 54°24' E 018°40'0 0.0
2017-Mar-14 23:33N 54°24' E 018°40'0 0.0
2017-Mar-14 22:33N 54°24' E 018°40'0 0.0
2017-Mar-14 21:33N 54°24' E 018°40'0 0.0
2017-Mar-14 20:33N 54°24' E 018°40'0 0.0
2017-Mar-14 19:33N 54°24' E 018°40'0 0.0
2017-Mar-14 18:33N 54°24' E 018°40'0 0.0
2017-Mar-14 17:33N 54°24' E 018°40'0 0.0
2017-Mar-14 16:33N 54°24' E 018°40'0 0.0
2017-Mar-14 15:33N 54°24' E 018°40'0 0.0
2017-Mar-14 14:33N 54°24' E 018°40'0 0.0
2017-Mar-14 13:33N 54°24' E 018°40'0 0.0
2017-Mar-14 12:33N 54°24' E 018°40'0 0.1
2017-Mar-14 11:33N 54°24' E 018°40'0 0.0
2017-Mar-14 10:33N 54°24' E 018°40'0 0.0
2017-Mar-14 09:33N 54°24' E 018°40'0 0.0
2017-Mar-14 08:33N 54°24' E 018°40'0 0.0
2017-Mar-14 07:33N 54°24' E 018°40'0 0.0
2017-Mar-14 06:33N 54°24' E 018°40'0 0.0
2017-Mar-14 05:33N 54°24' E 018°40'0 0.0
2017-Mar-14 04:33N 54°24' E 018°40'0 0.0
2017-Mar-14 03:33N 54°24' E 018°40'0 0.0
2017-Mar-14 02:33N 54°24' E 018°40'0 0.0
2017-Mar-14 01:33N 54°24' E 018°40'0 0.0
2017-Mar-14 00:33N 54°24' E 018°40'0 0.0
2017-Mar-13 23:33N 54°24' E 018°40'0 0.0
2017-Mar-13 22:33N 54°24' E 018°40'0 0.0
2017-Mar-13 21:33N 54°24' E 018°40'0 0.0
2017-Mar-13 20:33N 54°24' E 018°40'0 0.0
2017-Mar-13 19:33N 54°24' E 018°40'0 0.0
2017-Mar-13 18:33N 54°24' E 018°40'0 0.0
2017-Mar-13 17:33N 54°24' E 018°40'0 0.0
2017-Mar-13 16:33N 54°24' E 018°40'  

Dump ship's entire track history